createdAt,value
2018-07-04T00:01:48.048Z,20.94
2018-07-04T00:04:30.523Z,20.91
2018-07-04T00:07:10.707Z,20.92
2018-07-04T00:09:50.929Z,20.89
2018-07-04T00:12:31.278Z,20.86
2018-07-04T00:15:11.613Z,20.83
2018-07-04T00:17:52.195Z,20.82
2018-07-04T00:20:37.700Z,20.80
2018-07-04T00:23:18.245Z,20.74
2018-07-04T00:25:58.422Z,20.71
2018-07-04T00:28:38.635Z,20.66
2018-07-04T00:31:18.714Z,20.63
2018-07-04T00:33:58.867Z,20.61
2018-07-04T00:36:47.319Z,20.57
2018-07-04T00:39:27.746Z,20.53
2018-07-04T00:42:08.107Z,20.47
2018-07-04T00:44:48.105Z,20.41
2018-07-04T00:47:30.530Z,20.32
2018-07-04T00:50:10.645Z,20.28
2018-07-04T00:52:50.800Z,20.25
2018-07-04T00:55:31.104Z,20.18
2018-07-04T00:58:11.449Z,20.15
2018-07-04T01:00:51.561Z,20.14
2018-07-04T01:03:31.840Z,20.07
2018-07-04T01:06:12.402Z,19.99
2018-07-04T01:08:52.805Z,19.91
2018-07-04T01:11:33.276Z,19.84
2018-07-04T01:14:13.388Z,19.76
2018-07-04T01:16:53.395Z,19.72
2018-07-04T01:19:33.583Z,19.66
2018-07-04T01:22:13.743Z,19.64
2018-07-04T01:24:53.703Z,19.57
2018-07-04T01:27:34.222Z,19.52
2018-07-04T01:30:14.716Z,19.48
2018-07-04T01:32:55.173Z,19.45
2018-07-04T01:35:35.182Z,19.39
2018-07-04T01:38:15.342Z,19.35
2018-07-04T01:40:55.444Z,19.31
2018-07-04T01:43:35.616Z,19.29
2018-07-04T01:46:16.075Z,19.23
2018-07-04T01:48:56.210Z,19.16
2018-07-04T01:51:36.580Z,19.10
2018-07-04T01:54:17.077Z,19.04
2018-07-04T01:56:57.298Z,18.97
2018-07-04T01:59:37.089Z,18.91
2018-07-04T02:02:16.836Z,18.85
2018-07-04T02:04:56.699Z,18.81
2018-07-04T02:07:36.310Z,18.75
2018-07-04T02:10:16.344Z,18.69
2018-07-04T02:12:56.029Z,18.64
2018-07-04T02:15:35.932Z,18.55
2018-07-04T02:18:15.884Z,18.48
2018-07-04T02:20:55.669Z,18.41
2018-07-04T02:23:35.432Z,18.33
2018-07-04T02:26:15.142Z,18.27
2018-07-04T02:28:54.897Z,18.20
2018-07-04T02:31:34.746Z,18.12
2018-07-04T02:34:14.485Z,18.04
2018-07-04T02:36:54.219Z,17.99
2018-07-04T02:39:34.098Z,17.97
2018-07-04T02:42:13.948Z,17.95
2018-07-04T02:44:53.755Z,17.89
2018-07-04T02:47:33.640Z,17.86
2018-07-04T02:50:13.388Z,17.83
2018-07-04T02:52:53.207Z,17.80
2018-07-04T02:55:32.997Z,17.79
2018-07-04T02:58:12.776Z,17.76
2018-07-04T03:00:52.530Z,17.75
2018-07-04T03:03:32.243Z,17.74
2018-07-04T03:06:12.070Z,17.71
2018-07-04T03:08:51.840Z,17.65
2018-07-04T03:11:31.612Z,17.63
2018-07-04T03:14:11.331Z,17.59
2018-07-04T03:16:51.069Z,17.55
2018-07-04T03:19:30.918Z,17.53
2018-07-04T03:22:10.767Z,17.53
2018-07-04T03:24:50.380Z,17.50
2018-07-04T03:27:30.190Z,17.47
2018-07-04T03:30:10.077Z,17.46
2018-07-04T03:32:49.799Z,17.38
2018-07-04T03:35:29.672Z,17.35
2018-07-04T03:38:22.566Z,17.31
2018-07-04T03:41:02.244Z,17.25
2018-07-04T03:43:42.144Z,17.22
2018-07-04T03:46:22.098Z,17.21
2018-07-04T03:49:22.813Z,17.21
2018-07-04T03:52:02.536Z,17.18
2018-07-04T03:54:42.430Z,17.19
2018-07-04T03:57:22.333Z,17.25
2018-07-04T04:00:02.021Z,17.28
2018-07-04T04:02:41.808Z,17.31
2018-07-04T04:05:21.801Z,17.32
2018-07-04T04:08:01.667Z,17.34
2018-07-04T04:10:41.456Z,17.37
2018-07-04T04:13:21.117Z,17.34
2018-07-04T04:16:00.901Z,17.37
2018-07-04T04:18:40.724Z,17.42
2018-07-04T04:21:20.492Z,17.45
2018-07-04T04:24:00.029Z,17.44
2018-07-04T04:26:39.847Z,17.47
2018-07-04T04:29:19.628Z,17.50
2018-07-04T04:31:59.458Z,17.51
2018-07-04T04:34:39.233Z,17.52
2018-07-04T04:37:18.972Z,17.56
2018-07-04T04:39:58.821Z,17.56
2018-07-04T04:42:38.645Z,17.53
2018-07-04T04:45:18.440Z,17.55
2018-07-04T04:47:58.258Z,17.56
2018-07-04T04:50:38.033Z,17.59
2018-07-04T04:53:18.015Z,17.62
2018-07-04T04:55:57.748Z,17.70
2018-07-04T04:58:37.591Z,17.71
2018-07-04T05:01:17.296Z,17.75
2018-07-04T05:03:57.069Z,17.76
2018-07-04T05:06:36.855Z,17.82
2018-07-04T05:09:16.600Z,17.86
2018-07-04T05:11:56.131Z,17.83
2018-07-04T05:14:35.933Z,17.82
2018-07-04T05:17:16.631Z,17.84
2018-07-04T05:19:56.274Z,17.87
2018-07-04T05:22:36.082Z,17.89
2018-07-04T05:25:16.109Z,17.86
2018-07-04T05:27:55.978Z,17.85
2018-07-04T05:30:35.576Z,17.91
2018-07-04T05:33:15.474Z,18.03
2018-07-04T05:35:55.326Z,18.15
2018-07-04T05:38:35.170Z,18.30
2018-07-04T05:41:14.951Z,18.43
2018-07-04T05:43:54.787Z,18.54
2018-07-04T05:46:34.522Z,18.69
2018-07-04T05:49:23.552Z,18.76
2018-07-04T05:52:05.473Z,18.84
2018-07-04T05:54:45.180Z,18.93
2018-07-04T05:57:25.006Z,19.06
2018-07-04T06:00:04.656Z,19.15
2018-07-04T06:02:44.420Z,19.18
2018-07-04T06:05:24.363Z,19.30
2018-07-04T06:08:03.936Z,19.40
2018-07-04T06:10:43.737Z,19.40
2018-07-04T06:13:23.561Z,19.33
2018-07-04T06:16:03.202Z,19.37
2018-07-04T06:18:43.029Z,19.40
2018-07-04T06:21:22.724Z,19.49
2018-07-04T06:24:02.541Z,19.62
2018-07-04T06:26:42.301Z,19.74
2018-07-04T06:29:22.089Z,19.86
2018-07-04T06:32:01.954Z,19.95
2018-07-04T06:34:41.798Z,20.05
2018-07-04T06:37:21.617Z,20.09
2018-07-04T06:39:48.887Z,20.17
2018-07-04T06:42:16.147Z,20.23
2018-07-04T06:44:43.406Z,20.32
2018-07-04T06:47:10.661Z,20.44
2018-07-04T06:49:37.901Z,20.55
2018-07-04T06:52:05.195Z,20.64
2018-07-04T06:54:32.907Z,20.64
2018-07-04T06:57:00.189Z,20.75
2018-07-04T06:59:27.431Z,20.81
2018-07-04T07:02:17.875Z,20.90
2018-07-04T07:04:58.466Z,21.08
2018-07-04T07:07:38.124Z,21.16
2018-07-04T07:10:18.105Z,21.24
2018-07-04T07:12:57.842Z,21.24
2018-07-04T07:15:51.584Z,21.34
2018-07-04T07:18:31.363Z,21.50
2018-07-04T07:21:11.202Z,21.61
2018-07-04T07:23:51.005Z,21.69
2018-07-04T07:26:30.732Z,21.72
2018-07-04T07:35:53.808Z,22.05
2018-07-04T07:38:33.664Z,22.14
2018-07-04T07:41:13.439Z,22.24
2018-07-04T07:43:53.611Z,22.42
2018-07-04T07:46:33.289Z,22.55
2018-07-04T07:49:13.121Z,22.59
2018-07-04T07:51:53.002Z,22.61
2018-07-04T07:54:32.875Z,22.70
2018-07-04T07:57:12.544Z,22.70
2018-07-04T07:59:52.238Z,22.71
2018-07-04T08:02:31.963Z,22.64
2018-07-04T08:05:11.693Z,22.71
2018-07-04T08:07:53.418Z,22.79
2018-07-04T08:10:33.194Z,22.81
2018-07-04T08:13:13.009Z,22.83
2018-07-04T08:15:52.795Z,22.84
2018-07-04T08:18:32.605Z,22.90
2018-07-04T08:21:12.443Z,23.02
2018-07-04T08:23:52.573Z,23.15
2018-07-04T08:26:32.343Z,23.16
2018-07-04T08:29:12.099Z,23.17
2018-07-04T08:31:51.969Z,23.28
2018-07-04T08:34:31.745Z,23.43
2018-07-04T08:37:11.520Z,23.53
2018-07-04T08:39:51.389Z,23.47
2018-07-04T08:42:31.242Z,23.54
2018-07-04T08:45:11.075Z,23.67
2018-07-04T08:47:50.926Z,23.76
2018-07-04T08:53:39.149Z,23.89
2018-07-04T08:56:18.704Z,23.96
2018-07-04T08:58:58.452Z,24.04
2018-07-04T09:01:38.377Z,24.17
2018-07-04T09:04:19.918Z,24.24
2018-07-04T09:06:59.782Z,24.39
2018-07-04T09:09:39.603Z,24.48
2018-07-04T09:12:19.479Z,24.58
2018-07-04T09:14:59.320Z,24.64
2018-07-04T09:17:39.150Z,24.66
2018-07-04T09:20:18.899Z,24.69
2018-07-04T09:22:58.672Z,24.78
2018-07-04T09:25:38.274Z,24.85
2018-07-04T09:28:18.085Z,25.06
2018-07-04T09:30:57.755Z,25.12
2018-07-04T09:33:37.634Z,25.28
2018-07-04T09:36:17.279Z,25.39
2018-07-04T09:38:57.139Z,25.58
2018-07-04T09:41:36.975Z,25.72
2018-07-04T09:44:16.694Z,25.91
2018-07-04T09:46:56.393Z,26.13
2018-07-04T09:49:36.145Z,26.44
2018-07-04T09:52:15.950Z,26.70
2018-07-04T09:54:55.895Z,26.92
2018-07-04T09:57:35.668Z,27.06
2018-07-04T10:00:15.318Z,27.24
2018-07-04T10:02:55.039Z,27.26
2018-07-04T10:05:34.943Z,27.22
2018-07-04T10:08:14.748Z,27.27
2018-07-04T10:10:54.483Z,27.36
2018-07-04T10:13:34.349Z,27.46
2018-07-04T10:16:14.148Z,27.44
2018-07-04T10:18:54.146Z,27.42
2018-07-04T10:21:33.929Z,27.48
2018-07-04T10:24:13.630Z,27.72
2018-07-04T10:26:53.692Z,27.92
2018-07-04T10:29:33.447Z,28.07
2018-07-04T10:32:13.278Z,28.15
2018-07-04T10:34:53.016Z,28.07
2018-07-04T10:37:32.839Z,27.94
2018-07-04T10:40:12.723Z,27.79
2018-07-04T10:42:52.713Z,27.92
2018-07-04T10:45:32.662Z,28.02
2018-07-04T10:48:12.343Z,27.92
2018-07-04T10:50:52.126Z,27.85
2018-07-04T10:53:32.084Z,27.73
2018-07-04T10:56:11.732Z,27.93
2018-07-04T10:58:51.803Z,28.17
2018-07-04T11:01:31.363Z,28.38
2018-07-04T11:04:11.192Z,28.64
2018-07-04T11:06:50.857Z,28.83
2018-07-04T11:09:31.839Z,29.13
2018-07-04T11:12:12.875Z,29.26
2018-07-04T11:14:53.854Z,29.28
2018-07-04T11:17:47.343Z,29.40
2018-07-04T11:20:29.883Z,29.66
2018-07-04T11:23:11.334Z,29.94
2018-07-04T11:25:51.979Z,30.40
2018-07-04T11:28:33.468Z,30.71
2018-07-04T11:31:14.680Z,30.83
2018-07-04T11:33:56.295Z,30.82
2018-07-04T11:36:37.630Z,30.87
2018-07-04T11:39:18.986Z,31.45
2018-07-04T11:42:00.206Z,31.66
2018-07-04T11:44:52.659Z,32.03
2018-07-04T11:47:21.843Z,32.28
2018-07-04T11:49:51.367Z,32.30
2018-07-04T11:52:20.666Z,32.08
2018-07-04T11:54:49.978Z,32.29
2018-07-04T11:57:19.206Z,32.64
2018-07-04T11:59:48.596Z,32.84
2018-07-04T12:02:17.950Z,32.95
2018-07-04T12:05:03.650Z,32.91
2018-07-04T12:07:32.550Z,32.69
2018-07-04T12:10:01.614Z,32.45
2018-07-04T12:12:30.394Z,32.41
2018-07-04T12:14:59.075Z,32.46
2018-07-04T12:17:27.705Z,32.50
2018-07-04T12:19:56.721Z,32.53
2018-07-04T12:22:25.887Z,32.67
2018-07-04T12:24:55.053Z,32.91
2018-07-04T12:27:24.145Z,33.02
2018-07-04T12:29:52.174Z,33.18
2018-07-04T12:32:43.899Z,33.44
2018-07-04T12:35:11.283Z,33.59
2018-07-04T12:37:39.125Z,33.53
2018-07-04T12:40:07.292Z,33.30
2018-07-04T12:42:35.845Z,33.25
2018-07-04T12:45:05.220Z,33.09
2018-07-04T12:47:34.301Z,32.82
2018-07-04T12:50:03.011Z,32.67
2018-07-04T12:52:31.297Z,32.19
2018-07-04T12:55:14.285Z,31.96
2018-07-04T12:57:55.456Z,31.83
2018-07-04T13:00:36.710Z,31.75
2018-07-04T13:03:18.748Z,31.90
2018-07-04T13:05:59.538Z,32.02
2018-07-04T13:08:40.273Z,32.17
2018-07-04T13:11:21.220Z,32.14
2018-07-04T13:14:02.200Z,32.17
2018-07-04T13:16:42.960Z,32.23
2018-07-04T13:19:24.268Z,32.03
2018-07-04T13:22:05.636Z,32.00
2018-07-04T13:24:46.753Z,31.98
2018-07-04T13:27:28.305Z,31.66
2018-07-04T13:30:07.954Z,31.49
2018-07-04T13:32:48.190Z,31.30
2018-07-04T13:35:28.028Z,30.97
2018-07-04T13:38:07.721Z,30.98
2018-07-04T13:40:47.500Z,31.03
2018-07-04T13:43:27.142Z,31.08
2018-07-04T13:46:06.999Z,31.07
2018-07-04T13:48:46.854Z,30.94
2018-07-04T13:51:26.567Z,30.84
2018-07-04T13:54:06.389Z,30.78
2018-07-04T13:56:47.590Z,30.66
2018-07-04T13:59:27.450Z,30.60
2018-07-04T14:02:07.129Z,30.73
2018-07-04T14:04:46.800Z,30.89
2018-07-04T14:07:26.600Z,30.89
2018-07-04T14:10:07.744Z,30.87
2018-07-04T14:12:48.581Z,30.63
2018-07-04T14:15:28.465Z,30.46
2018-07-04T14:18:08.266Z,30.35
2018-07-04T14:20:48.057Z,30.38
2018-07-04T14:23:27.864Z,30.62
2018-07-04T14:26:07.940Z,30.69
2018-07-04T14:28:47.841Z,30.47
2018-07-04T14:31:27.633Z,30.32
2018-07-04T14:34:07.487Z,30.30
2018-07-04T14:36:47.374Z,30.15
2018-07-04T14:39:26.945Z,30.09
2018-07-04T14:42:06.767Z,30.04
2018-07-04T14:44:46.458Z,30.11
2018-07-04T14:47:26.354Z,30.10
2018-07-04T14:50:05.964Z,30.10
2018-07-04T14:52:45.824Z,30.32
2018-07-04T14:55:25.611Z,30.52
2018-07-04T14:58:05.413Z,30.48
2018-07-04T15:00:45.302Z,30.54
2018-07-04T15:03:24.891Z,30.63
2018-07-04T15:06:04.716Z,30.61
2018-07-04T15:08:44.478Z,30.64
2018-07-04T15:11:25.597Z,30.93
2018-07-04T15:14:05.436Z,30.89
2018-07-04T15:16:45.105Z,30.74
2018-07-04T15:19:24.871Z,30.67
2018-07-04T15:22:04.754Z,30.66
2018-07-04T15:24:44.621Z,30.66
2018-07-04T15:27:25.087Z,30.62
2018-07-04T15:30:05.402Z,30.66
2018-07-04T15:32:45.479Z,30.85
2018-07-04T15:35:25.294Z,30.82
2018-07-04T15:38:05.380Z,30.66
2018-07-04T15:40:45.102Z,30.53
2018-07-04T15:43:24.873Z,30.46
2018-07-04T15:46:04.716Z,30.50
2018-07-04T15:48:44.442Z,30.40
2018-07-04T15:51:24.969Z,30.41
2018-07-04T15:54:05.165Z,30.68
2018-07-04T15:56:45.031Z,30.80
2018-07-04T15:59:24.839Z,30.91
2018-07-04T16:02:04.789Z,31.11
2018-07-04T16:04:47.308Z,31.42
2018-07-04T16:07:26.992Z,31.35
2018-07-04T16:10:16.021Z,31.18
2018-07-04T16:12:55.981Z,31.10
2018-07-04T16:15:41.776Z,30.91
2018-07-04T16:18:21.780Z,30.79
2018-07-04T16:21:03.206Z,30.70
2018-07-04T16:23:42.931Z,30.73
2018-07-04T16:26:23.935Z,30.78
2018-07-04T16:29:06.045Z,30.62
2018-07-04T16:31:45.864Z,30.65
2018-07-04T16:34:25.734Z,30.54
2018-07-04T16:37:05.329Z,30.26
2018-07-04T16:39:45.196Z,30.18
2018-07-04T16:42:25.048Z,30.22
2018-07-04T16:45:05.215Z,30.11
2018-07-04T16:47:45.634Z,30.02
2018-07-04T16:50:25.779Z,29.95
2018-07-04T16:53:07.091Z,29.91
2018-07-04T16:55:46.837Z,29.83
2018-07-04T16:58:28.753Z,29.71
2018-07-04T17:01:08.808Z,29.55
2018-07-04T17:03:48.552Z,29.49
2018-07-04T17:06:28.285Z,29.47
2018-07-04T17:09:08.130Z,29.41
2018-07-04T17:11:47.880Z,29.36
2018-07-04T17:14:27.675Z,29.24
2018-07-04T17:17:07.476Z,29.11
2018-07-04T17:19:47.289Z,29.01
2018-07-04T17:22:27.157Z,28.99
2018-07-04T17:25:06.944Z,29.10
2018-07-04T17:27:46.682Z,29.29
2018-07-04T17:30:26.629Z,29.47
2018-07-04T17:33:06.332Z,29.60
2018-07-04T17:35:46.108Z,29.62
2018-07-04T17:38:26.907Z,29.57
2018-07-04T17:41:06.763Z,29.46
2018-07-04T17:43:46.556Z,29.50
2018-07-04T17:46:26.374Z,29.62
2018-07-04T17:49:06.327Z,29.72
2018-07-04T17:51:46.296Z,29.74
2018-07-04T17:54:26.150Z,29.62
2018-07-04T17:57:06.054Z,29.57
2018-07-04T18:00:02.622Z,29.46
2018-07-04T18:02:42.370Z,29.25
2018-07-04T18:05:22.236Z,29.05
2018-07-04T18:08:02.128Z,28.83
2018-07-04T18:10:41.865Z,28.64
2018-07-04T18:13:21.639Z,28.54
2018-07-04T18:16:01.432Z,28.36
2018-07-04T18:18:41.230Z,28.30
2018-07-04T18:21:24.574Z,28.19
2018-07-04T18:24:05.326Z,28.07
2018-07-04T18:26:45.226Z,27.99
2018-07-04T18:29:25.020Z,27.89
2018-07-04T18:32:05.302Z,27.79
2018-07-04T18:34:45.182Z,27.63
2018-07-04T18:37:25.191Z,27.50
2018-07-04T18:40:04.847Z,27.33
2018-07-04T18:42:44.731Z,27.17
2018-07-04T18:45:24.552Z,27.00
2018-07-04T18:48:04.384Z,26.81
2018-07-04T18:50:44.266Z,26.69
2018-07-04T18:53:24.136Z,26.61
2018-07-04T18:56:03.968Z,26.62
2018-07-04T18:58:43.701Z,26.53
2018-07-04T19:01:23.670Z,26.48
2018-07-04T19:04:03.297Z,26.40
2018-07-04T19:06:43.034Z,26.30
2018-07-04T19:09:22.834Z,26.19
2018-07-04T19:12:02.737Z,26.06
2018-07-04T19:14:42.502Z,25.91
2018-07-04T19:17:22.227Z,25.86
2018-07-04T19:20:02.130Z,25.83
2018-07-04T19:22:41.788Z,25.76
2018-07-04T19:25:21.461Z,25.68
2018-07-04T19:28:11.714Z,25.54
2018-07-04T19:30:51.493Z,25.34
2018-07-04T19:33:31.364Z,25.14
2018-07-04T19:36:11.070Z,24.97
2018-07-04T19:38:50.929Z,24.83
2018-07-04T19:41:30.659Z,24.73
2018-07-04T19:44:10.415Z,24.58
2018-07-04T19:47:02.218Z,24.45
2018-07-04T19:49:46.627Z,24.30
2018-07-04T19:52:26.525Z,24.22
2018-07-04T19:55:06.205Z,24.23
2018-07-04T19:57:46.016Z,24.29
2018-07-04T20:00:25.813Z,24.27
2018-07-04T20:03:05.620Z,24.22
2018-07-04T20:05:45.518Z,24.18
2018-07-04T20:08:25.296Z,24.16
2018-07-04T20:11:04.901Z,24.11
2018-07-04T20:13:44.652Z,24.04
2018-07-04T20:16:24.494Z,23.95
2018-07-04T20:19:04.216Z,23.90
2018-07-04T20:21:43.983Z,23.82
2018-07-04T20:24:23.681Z,23.74
2018-07-04T20:27:03.585Z,23.68
2018-07-04T20:29:43.424Z,23.63
2018-07-04T20:32:23.284Z,23.55
2018-07-04T20:35:03.133Z,23.48
2018-07-04T20:37:42.987Z,23.43
2018-07-04T20:40:22.810Z,23.29
2018-07-04T20:43:02.633Z,23.21
2018-07-04T20:45:42.417Z,23.15
2018-07-04T20:48:22.240Z,23.07
2018-07-04T20:51:02.060Z,22.92
2018-07-04T20:53:42.029Z,22.87
2018-07-04T20:56:21.896Z,22.86
2018-07-04T20:59:01.703Z,22.77
2018-07-04T21:01:41.391Z,22.60
2018-07-04T21:04:21.153Z,22.51
2018-07-04T21:07:01.102Z,22.44
2018-07-04T21:09:40.741Z,22.39
2018-07-04T21:12:20.460Z,22.36
2018-07-04T21:15:00.150Z,22.24
2018-07-04T21:17:39.898Z,22.14
2018-07-04T21:20:19.730Z,22.05
2018-07-04T21:22:59.678Z,22.01
2018-07-04T21:25:39.285Z,21.99
2018-07-04T21:28:19.274Z,22.04
2018-07-04T21:30:58.884Z,22.02
2018-07-04T21:33:38.645Z,21.96
2018-07-04T21:36:18.571Z,21.96
2018-07-04T21:38:58.178Z,21.90
2018-07-04T21:41:37.986Z,21.83
2018-07-04T21:44:17.765Z,21.78
2018-07-04T21:46:57.577Z,21.80
2018-07-04T21:49:37.471Z,21.78
2018-07-04T21:52:17.175Z,21.72
2018-07-04T21:54:57.045Z,21.69
2018-07-04T21:57:36.768Z,21.65
2018-07-04T22:00:25.814Z,21.61
2018-07-04T22:03:05.651Z,21.53
2018-07-04T22:06:19.287Z,21.38
2018-07-04T22:08:59.029Z,21.18
2018-07-04T22:11:38.808Z,21.11
2018-07-04T22:14:18.661Z,20.90
2018-07-04T22:16:58.411Z,20.78
2018-07-04T22:19:38.318Z,20.70
2018-07-04T22:22:17.898Z,20.69
2018-07-04T22:24:57.860Z,20.70
2018-07-04T22:27:37.657Z,20.69
2018-07-04T22:30:17.346Z,20.65
2018-07-04T22:32:57.186Z,20.59
2018-07-04T22:35:36.873Z,20.50
2018-07-04T22:38:16.600Z,20.43
2018-07-04T22:40:56.287Z,20.42
2018-07-04T22:43:36.037Z,20.42
2018-07-04T22:46:15.792Z,20.35
2018-07-04T22:48:55.601Z,20.28
2018-07-04T22:51:35.257Z,20.18
2018-07-04T22:54:15.024Z,20.19
2018-07-04T22:56:55.010Z,20.21
2018-07-04T22:59:34.629Z,20.21
2018-07-04T23:02:14.348Z,20.23
2018-07-04T23:04:54.054Z,20.24
2018-07-04T23:07:33.751Z,20.25
2018-07-04T23:10:13.500Z,20.26
2018-07-04T23:12:53.240Z,20.30
2018-07-04T23:15:33.039Z,20.31
2018-07-04T23:18:12.825Z,20.35
2018-07-04T23:20:52.664Z,20.36
2018-07-04T23:23:32.441Z,20.38
2018-07-04T23:26:12.169Z,20.41
2018-07-04T23:28:51.880Z,20.42
2018-07-04T23:31:31.754Z,20.40
2018-07-04T23:34:37.113Z,20.25
2018-07-04T23:37:16.794Z,20.20
2018-07-04T23:39:56.564Z,20.13
2018-07-04T23:42:36.431Z,20.16
2018-07-04T23:45:16.112Z,20.05
2018-07-04T23:47:55.852Z,20.03
2018-07-04T23:50:35.523Z,20.05
2018-07-04T23:53:15.241Z,20.09
2018-07-04T23:55:55.138Z,20.08
